Time;durP1;ratioP1;P1;durP2;ratioP2;P2;SDS_P1;SDS_P2;PMS_P1;PMS_P2;Temp;Humidity;BMP_temperature;BMP_pressure;BME280_temperature;BME280_humidity;BME280_pressure;Samples;Min_cycle;Max_cycle;Signal;HPM_P1;HPM_P2
2023/07/14 00:01:35;;;;;;;;;;;;;;;;;;5111462;28;19912;-71
2023/07/14 00:04:01;;;;;;;;;;;;;;;;;;5110455;28;19915;-71
2023/07/14 00:08:43;;;;;;;;;;;;;;;;;;5091006;28;19912;-71
2023/07/14 00:13:57;;;;;;;;;;;;;;;;;;5112058;27;19912;-70
2023/07/14 00:17:40;;;;;;;;;;;;;;;;;;5112467;27;19922;-71
2023/07/14 00:20:06;;;;;;;;;;;;;;;;;;5111805;28;19957;-71
2023/07/14 00:25:25;;;;;;;;;;;;;;;;;;5111969;27;19916;-70
2023/07/14 00:27:51;;;;;;;;;;;;;;;;;;5110102;28;19912;-70
2023/07/14 00:30:18;;;;;;;;;;;;;;;;;;5110439;28;19908;-70
2023/07/14 00:32:44;;;;;;;;;;;;;;;;;;5111696;28;19907;-70
2023/07/14 00:35:10;;;;;;;;;;;;;;;;;;5111649;28;20283;-71
2023/07/14 00:38:52;;;;;;;;;;;;;;;;;;5092802;27;19917;-71
2023/07/14 00:41:18;;;;;;;;;;;;;;;;;;5091443;28;19999;-71
2023/07/14 00:45:18;;;;;;;;;;;;;;;;;;5112030;27;20455;-72
2023/07/14 00:49:06;;;;;;;;;;;;;;;;;;5071019;28;19935;-72
2023/07/14 00:51:32;;;;;;;;;;;;;;;;;;5071447;28;20416;-72
2023/07/14 01:00:01;;;;;;;;;;;;;;;;;;5091964;27;19912;-70
2023/07/14 01:02:28;;;;;;;;;;;;;;;;;;5091454;28;19913;-71
2023/07/14 01:04:54;;;;;;;;;;;;;;;;;;5090965;28;19915;-70
2023/07/14 01:07:20;;;;;;;;;;;;;;;;;;5091372;28;19908;-71
2023/07/14 01:13:43;;;;;;;;;;;;;;;;;;5092005;27;19923;-70
2023/07/14 01:16:09;;;;;;;;;;;;;;;;;;5090146;28;19913;-70
2023/07/14 01:18:35;;;;;;;;;;;;;;;;;;5090914;28;19966;-70
2023/07/14 01:21:01;;;;;;;;;;;;;;;;;;5090112;28;19908;-70
2023/07/14 01:23:27;;;;;;;;;;;;;;;;;;5091292;28;20328;-70
2023/07/14 01:29:25;;;;;;;;;;;;;;;;;;5112245;27;19916;-70
2023/07/14 01:33:11;;;;;;;;;;;;;;;;;;5111705;27;19912;-70
2023/07/14 01:35:38;;;;;;;;;;;;;;;;;;5111743;28;19912;-71
2023/07/14 01:38:04;;;;;;;;;;;;;;;;;;5111312;28;19908;-70
2023/07/14 01:40:30;;;;;;;;;;;;;;;;;;5111642;28;19916;-70
2023/07/14 01:42:57;;;;;;;;;;;;;;;;;;5111573;28;19919;-71
2023/07/14 01:50:36;;;;;;;;;;;;;;;;;;5173729;27;20021;-70
2023/07/14 01:53:29;;;;;;;;;;;;;;;;;;5111718;27;19916;-70
2023/07/14 01:56:14;;;;;;;;;;;;;;;;;;5112649;27;19923;-70
2023/07/14 01:58:56;;;;;;;;;;;;;;;;;;5091549;28;19918;-70
2023/07/14 02:03:51;;;;;;;;;;;;;;;;;;5091386;27;19912;-70
2023/07/14 02:07:57;;;;;;;;;;;;;;;;;;5111653;27;19916;-71
2023/07/14 02:10:23;;;;;;;;;;;;;;;;;;5111755;28;20257;-70
2023/07/14 02:12:49;;;;;;;;;;;;;;;;;;5111958;28;19916;-71
2023/07/14 02:15:17;;;;;;;;;;;;;;;;;;5111264;28;19908;-71
2023/07/14 02:17:43;;;;;;;;;;;;;;;;;;5110282;28;19931;-70
2023/07/14 02:20:10;;;;;;;;;;;;;;;;;;5111191;28;20352;-70
2023/07/14 02:22:37;;;;;;;;;;;;;;;;;;5111494;28;20287;-70
2023/07/14 02:25:03;;;;;;;;;;;;;;;;;;5111417;28;19915;-70
2023/07/14 02:27:29;;;;;;;;;;;;;;;;;;5110888;28;19920;-71
2023/07/14 02:29:55;;;;;;;;;;;;;;;;;;5111473;28;19917;-72
2023/07/14 02:32:21;;;;;;;;;;;;;;;;;;5111396;28;19908;-73
2023/07/14 02:34:47;;;;;;;;;;;;;;;;;;5110866;28;19991;-71
2023/07/14 02:37:13;;;;;;;;;;;;;;;;;;5111105;28;19961;-71
2023/07/14 02:40:36;;;;;;;;;;;;;;;;;;5091366;27;19919;-72
2023/07/14 02:43:02;;;;;;;;;;;;;;;;;;5090980;28;19916;-71
2023/07/14 02:47:06;;;;;;;;;;;;;;;;;;5112155;27;19916;-72
2023/07/14 02:49:32;;;;;;;;;;;;;;;;;;5111296;28;20002;-71
2023/07/14 02:51:58;;;;;;;;;;;;;;;;;;5111750;28;19908;-72
2023/07/14 02:55:59;;;;;;;;;;;;;;;;;;5111369;27;19916;-71
2023/07/14 02:58:25;;;;;;;;;;;;;;;;;;5111695;28;20348;-70
2023/07/14 03:01:15;;;;;;;;;;;;;;;;;;5112026;27;20295;-70
2023/07/14 03:06:03;;;;;;;;;;;;;;;;;;5092010;27;19919;-70
2023/07/14 03:10:20;;;;;;;;;;;;;;;;;;5111538;27;19923;-70
2023/07/14 03:12:46;;;;;;;;;;;;;;;;;;5111707;28;19912;-70
2023/07/14 03:15:12;;;;;;;;;;;;;;;;;;5111633;28;19908;-71
2023/07/14 03:17:52;;;;;;;;;;;;;;;;;;5111623;27;19916;-71
2023/07/14 03:20:18;;;;;;;;;;;;;;;;;;5111745;28;20344;-71
2023/07/14 03:24:38;;;;;;;;;;;;;;;;;;5111700;27;19916;-71
2023/07/14 03:31:41;;;;;;;;;;;;;;;;;;5152553;27;20375;-71
2023/07/14 03:34:19;;;;;;;;;;;;;;;;;;5112021;27;19919;-71
2023/07/14 03:37:42;;;;;;;;;;;;;;;;;;5111479;27;19912;-70
2023/07/14 03:40:08;;;;;;;;;;;;;;;;;;5111718;28;20006;-71
2023/07/14 03:42:34;;;;;;;;;;;;;;;;;;5110364;28;19928;-72
2023/07/14 03:45:00;;;;;;;;;;;;;;;;;;5111578;28;19915;-72
2023/07/14 03:48:56;;;;;;;;;;;;;;;;;;5112124;27;19916;-71
2023/07/14 03:51:22;;;;;;;;;;;;;;;;;;5111724;28;20341;-71
2023/07/14 03:53:48;;;;;;;;;;;;;;;;;;5111324;28;19939;-71
2023/07/14 03:58:01;;;;;;;;;;;;;;;;;;5091764;27;19938;-71
2023/07/14 04:01:58;;;;;;;;;;;;;;;;;;5111771;27;19916;-70
2023/07/14 04:06:06;;;;;;;;;;;;;;;;;;5153046;27;20014;-71
2023/07/14 04:08:32;;;;;;;;;;;;;;;;;;5152982;27;19955;-71
2023/07/14 04:11:58;;;;;;;;;;;;;;;;;;5091456;27;19916;-70
2023/07/14 04:14:24;;;;;;;;;;;;;;;;;;5091221;28;20007;-70
2023/07/14 04:16:50;;;;;;;;;;;;;;;;;;5091277;28;19912;-70
2023/07/14 04:19:16;;;;;;;;;;;;;;;;;;5090558;28;19915;-70
2023/07/14 04:25:58;;;;;;;;;;;;;;;;;;5111828;27;19916;-70
2023/07/14 04:28:24;;;;;;;;;;;;;;;;;;5111562;28;19912;-72
2023/07/14 04:32:36;;;;;;;;;;;;;;;;;;5153555;27;19915;-71
2023/07/14 04:35:04;;;;;;;;;;;;;;;;;;5152516;27;19998;-70
2023/07/14 04:37:30;;;;;;;;;;;;;;;;;;5152980;27;19907;-70
2023/07/14 04:39:56;;;;;;;;;;;;;;;;;;5152786;27;19964;-70
2023/07/14 04:43:40;;;;;;;;;;;;;;;;;;5111925;27;20276;-72
2023/07/14 04:46:06;;;;;;;;;;;;;;;;;;5112015;28;20003;-72
2023/07/14 04:48:32;;;;;;;;;;;;;;;;;;5109997;28;20326;-71
2023/07/14 04:50:58;;;;;;;;;;;;;;;;;;5110404;28;19962;-71
2023/07/14 04:53:24;;;;;;;;;;;;;;;;;;5111580;28;19908;-71
2023/07/14 04:56:27;;;;;;;;;;;;;;;;;;5091294;27;19916;-71
2023/07/14 04:58:53;;;;;;;;;;;;;;;;;;5090039;28;20384;-70
2023/07/14 05:01:19;;;;;;;;;;;;;;;;;;5090081;28;19915;-71
2023/07/14 05:03:45;;;;;;;;;;;;;;;;;;5091046;28;20437;-70
2023/07/14 05:07:11;;;;;;;;;;;;;;;;;;5091782;27;19923;-72
2023/07/14 05:09:37;;;;;;;;;;;;;;;;;;5089654;28;19951;-72
2023/07/14 05:12:03;;;;;;;;;;;;;;;;;;5090331;28;19962;-71
2023/07/14 05:14:28;;;;;;;;;;;;;;;;;;5091278;28;19915;-72
2023/07/14 05:20:07;;;;;;;;;;;;;;;;;;5111745;27;19916;-70
2023/07/14 05:23:06;;;;;;;;;;;;;;;;;;5109848;27;20384;-71
2023/07/14 05:25:32;;;;;;;;;;;;;;;;;;5110419;28;20006;-70
2023/07/14 05:27:58;;;;;;;;;;;;;;;;;;5111609;28;20356;-70
2023/07/14 05:30:24;;;;;;;;;;;;;;;;;;5111267;28;19943;-70
2023/07/14 05:32:49;;;;;;;;;;;;;;;;;;5108566;28;19908;-71
2023/07/14 05:35:15;;;;;;;;;;;;;;;;;;5108148;28;20268;-71
2023/07/14 05:37:41;;;;;;;;;;;;;;;;;;5109002;28;20375;-71
2023/07/14 05:40:10;;;;;;;;;;;;;;;;;;5100542;28;19916;-70
2023/07/14 05:43:22;;;;;;;;;;;;;;;;;;5109655;27;19912;-70
2023/07/14 05:45:48;;;;;;;;;;;;;;;;;;5108282;28;20014;-70
2023/07/14 05:48:16;;;;;;;;;;;;;;;;;;5098284;28;20015;-70
2023/07/14 05:50:42;;;;;;;;;;;;;;;;;;5091883;28;19912;-71
2023/07/14 05:53:08;;;;;;;;;;;;;;;;;;5089360;28;19958;-71
2023/07/14 05:55:34;;;;;;;;;;;;;;;;;;5090959;28;19909;-70
2023/07/14 05:58:29;;;;;;;;;;;;;;;;;;5153060;27;20466;-71
2023/07/14 06:00:55;;;;;;;;;;;;;;;;;;5152894;27;19939;-69
2023/07/14 06:04:28;;;;;;;;;;;;;;;;;;5153108;27;20458;-69
2023/07/14 06:06:54;;;;;;;;;;;;;;;;;;5152416;27;19915;-69
2023/07/14 06:09:20;;;;;;;;;;;;;;;;;;5140675;27;20295;-67
2023/07/14 06:11:46;;;;;;;;;;;;;;;;;;5131154;28;19923;-68
2023/07/14 06:15:07;;;;;;;;;;;;;;;;;;5100449;27;19922;-67
2023/07/14 06:17:33;;;;;;;;;;;;;;;;;;5106832;28;19913;-67
2023/07/14 06:19:59;;;;;;;;;;;;;;;;;;5094510;28;19930;-68
2023/07/14 06:22:25;;;;;;;;;;;;;;;;;;5098648;28;19995;-69
2023/07/14 06:24:51;;;;;;;;;;;;;;;;;;5091156;28;19908;-68
2023/07/14 06:27:17;;;;;;;;;;;;;;;;;;5090909;28;19920;-68
2023/07/14 06:29:45;;;;;;;;;;;;;;;;;;5090748;28;19934;-68
2023/07/14 06:32:12;;;;;;;;;;;;;;;;;;5090517;28;19908;-69
2023/07/14 06:35:19;;;;;;;;;;;;;;;;;;5089679;27;19916;-68
2023/07/14 06:39:38;;;;;;;;;;;;;;;;;;5153008;27;19912;-67
2023/07/14 06:42:04;;;;;;;;;;;;;;;;;;5134012;27;19912;-68
2023/07/14 06:44:30;;;;;;;;;;;;;;;;;;5133863;27;19911;-68
2023/07/14 06:46:56;;;;;;;;;;;;;;;;;;5152764;27;19911;-67
2023/07/14 06:49:22;;;;;;;;;;;;;;;;;;5152133;27;19966;-66
2023/07/14 06:54:06;;;;;;;;;;;;;;;;;;5109399;27;19934;-66
2023/07/14 06:56:32;;;;;;;;;;;;;;;;;;5109836;28;19963;-67
2023/07/14 06:58:58;;;;;;;;;;;;;;;;;;5102440;28;19913;-67
2023/07/14 07:01:25;;;;;;;;;;;;;;;;;;5096966;28;19971;-70
2023/07/14 07:04:26;;;;;;;;;;;;;;;;;;5097574;27;19924;-68
2023/07/14 07:06:53;;;;;;;;;;;;;;;;;;5088349;28;19912;-67
2023/07/14 07:09:19;;;;;;;;;;;;;;;;;;5088639;28;19908;-71
2023/07/14 07:11:45;;;;;;;;;;;;;;;;;;5089072;28;20403;-69
2023/07/14 07:14:11;;;;;;;;;;;;;;;;;;5088861;28;19913;-70
2023/07/14 07:16:37;;;;;;;;;;;;;;;;;;5088352;28;19951;-68
2023/07/14 07:19:03;;;;;;;;;;;;;;;;;;5087915;28;19916;-70
2023/07/14 07:21:29;;;;;;;;;;;;;;;;;;5088459;28;19908;-69
2023/07/14 07:23:55;;;;;;;;;;;;;;;;;;5088333;28;19924;-69
2023/07/14 07:26:20;;;;;;;;;;;;;;;;;;5089095;28;19917;-68
2023/07/14 07:28:46;;;;;;;;;;;;;;;;;;5090918;28;19908;-69
2023/07/14 07:31:14;;;;;;;;;;;;;;;;;;5089022;28;19912;-69
2023/07/14 07:33:40;;;;;;;;;;;;;;;;;;5088386;28;19908;-70
2023/07/14 07:36:15;;;;;;;;;;;;;;;;;;5088165;28;19916;-69
2023/07/14 07:38:41;;;;;;;;;;;;;;;;;;5085379;28;19916;-68
2023/07/14 07:41:07;;;;;;;;;;;;;;;;;;5085724;28;20011;-69
2023/07/14 07:43:33;;;;;;;;;;;;;;;;;;5090407;28;19920;-71
2023/07/14 07:45:59;;;;;;;;;;;;;;;;;;5086314;28;19908;-69
2023/07/14 07:48:25;;;;;;;;;;;;;;;;;;5086336;28;19908;-69
2023/07/14 07:50:51;;;;;;;;;;;;;;;;;;5086618;28;19943;-69
2023/07/14 07:53:17;;;;;;;;;;;;;;;;;;5087440;28;19917;-70
2023/07/14 07:55:43;;;;;;;;;;;;;;;;;;5087281;28;20413;-72
2023/07/14 07:58:09;;;;;;;;;;;;;;;;;;5086778;28;19908;-70
2023/07/14 08:00:36;;;;;;;;;;;;;;;;;;5086418;28;19962;-73
2023/07/14 08:03:20;;;;;;;;;;;;;;;;;;5152366;27;20010;-70
2023/07/14 08:05:46;;;;;;;;;;;;;;;;;;5152407;27;19976;-70
2023/07/14 08:08:12;;;;;;;;;;;;;;;;;;5152792;27;19953;-70
2023/07/14 08:10:38;;;;;;;;;;;;;;;;;;5152654;27;19960;-69
2023/07/14 08:13:04;;;;;;;;;;;;;;;;;;5152325;27;20013;-70
2023/07/14 08:15:30;;;;;;;;;;;;;;;;;;5134056;27;20332;-69
2023/07/14 08:17:56;;;;;;;;;;;;;;;;;;5152577;27;19914;-70
2023/07/14 08:20:22;;;;;;;;;;;;;;;;;;5152215;27;19911;-68
2023/07/14 08:22:48;;;;;;;;;;;;;;;;;;5152348;27;19959;-70
2023/07/14 08:25:14;;;;;;;;;;;;;;;;;;5152448;27;19908;-70
2023/07/14 08:27:40;;;;;;;;;;;;;;;;;;5133421;27;20469;-70
2023/07/14 08:30:08;;;;;;;;;;;;;;;;;;5152466;27;19907;-71
2023/07/14 08:32:34;;;;;;;;;;;;;;;;;;5152288;27;19914;-70
2023/07/14 08:35:00;;;;;;;;;;;;;;;;;;5133303;27;19912;-70
2023/07/14 08:37:25;;;;;;;;;;;;;;;;;;5152235;27;19907;-68
2023/07/14 08:39:51;;;;;;;;;;;;;;;;;;5152170;27;19907;-68
2023/07/14 08:42:17;;;;;;;;;;;;;;;;;;5151661;27;19922;-68
2023/07/14 08:44:44;;;;;;;;;;;;;;;;;;5133481;27;19968;-70
2023/07/14 08:47:10;;;;;;;;;;;;;;;;;;5133101;27;20337;-68
2023/07/14 08:49:36;;;;;;;;;;;;;;;;;;5151979;27;19957;-67
2023/07/14 08:52:02;;;;;;;;;;;;;;;;;;5151830;27;20428;-69
2023/07/14 08:54:30;;;;;;;;;;;;;;;;;;5151506;27;19933;-68
2023/07/14 08:56:56;;;;;;;;;;;;;;;;;;5151630;27;19907;-68
2023/07/14 08:59:22;;;;;;;;;;;;;;;;;;5151664;27;19914;-68
2023/07/14 09:01:48;;;;;;;;;;;;;;;;;;5151011;27;20020;-69
2023/07/14 09:04:14;;;;;;;;;;;;;;;;;;5151587;27;19907;-68
2023/07/14 09:06:40;;;;;;;;;;;;;;;;;;5151568;27;19914;-69
2023/07/14 09:09:07;;;;;;;;;;;;;;;;;;5132575;27;19932;-68
2023/07/14 09:11:35;;;;;;;;;;;;;;;;;;5151440;27;20005;-68
2023/07/14 09:14:00;;;;;;;;;;;;;;;;;;5140897;27;20271;-69
2023/07/14 09:16:26;;;;;;;;;;;;;;;;;;5137310;27;19908;-68
2023/07/14 09:18:52;;;;;;;;;;;;;;;;;;5137442;27;20381;-69
2023/07/14 09:21:18;;;;;;;;;;;;;;;;;;5114696;27;19988;-68
2023/07/14 09:23:45;;;;;;;;;;;;;;;;;;5098266;28;19918;-70
2023/07/14 09:26:11;;;;;;;;;;;;;;;;;;5116964;28;19914;-70
2023/07/14 09:28:37;;;;;;;;;;;;;;;;;;5116765;28;19999;-69
2023/07/14 09:33:48;;;;;;;;;;;;;;;;;;5116694;28;19962;-68
2023/07/14 09:36:14;;;;;;;;;;;;;;;;;;5114649;28;20283;-69
2023/07/14 09:38:40;;;;;;;;;;;;;;;;;;5115098;28;19922;-69
2023/07/14 09:41:07;;;;;;;;;;;;;;;;;;5116247;28;19944;-69
2023/07/14 09:43:33;;;;;;;;;;;;;;;;;;5115733;28;20400;-70
2023/07/14 09:46:00;;;;;;;;;;;;;;;;;;5097910;28;19908;-69
2023/07/14 09:48:26;;;;;;;;;;;;;;;;;;5116315;28;19915;-69
2023/07/14 09:50:52;;;;;;;;;;;;;;;;;;5115863;28;19912;-69
2023/07/14 09:53:18;;;;;;;;;;;;;;;;;;5116298;28;19965;-69
2023/07/14 09:55:44;;;;;;;;;;;;;;;;;;5116100;28;20287;-69
2023/07/14 09:58:10;;;;;;;;;;;;;;;;;;5115943;28;19912;-70
2023/07/14 10:00:36;;;;;;;;;;;;;;;;;;5114828;28;19908;-67
2023/07/14 10:03:02;;;;;;;;;;;;;;;;;;5097395;28;19920;-68
2023/07/14 10:05:30;;;;;;;;;;;;;;;;;;5097509;28;19915;-69
2023/07/14 10:07:56;;;;;;;;;;;;;;;;;;5115892;27;19908;-69
2023/07/14 10:10:26;;;;;;;;;;;;;;;;;;5116052;28;20279;-68
2023/07/14 10:12:52;;;;;;;;;;;;;;;;;;5114377;28;19916;-68
2023/07/14 10:15:18;;;;;;;;;;;;;;;;;;5113881;28;19953;-69
2023/07/14 10:17:43;;;;;;;;;;;;;;;;;;5113867;28;20317;-69
2023/07/14 10:20:10;;;;;;;;;;;;;;;;;;5096352;28;20340;-69
2023/07/14 10:22:37;;;;;;;;;;;;;;;;;;5115006;28;19916;-68
2023/07/14 10:25:03;;;;;;;;;;;;;;;;;;5095823;28;20633;-67
2023/07/14 10:27:29;;;;;;;;;;;;;;;;;;5114849;28;19961;-68
2023/07/14 10:29:56;;;;;;;;;;;;;;;;;;5115555;28;20352;-69
2023/07/14 10:32:22;;;;;;;;;;;;;;;;;;5115623;28;19915;-68
2023/07/14 10:34:49;;;;;;;;;;;;;;;;;;5114973;28;19907;-68
2023/07/14 10:37:15;;;;;;;;;;;;;;;;;;5115407;28;19915;-68
2023/07/14 10:39:41;;;;;;;;;;;;;;;;;;5115186;28;19908;-69
2023/07/14 10:42:07;;;;;;;;;;;;;;;;;;5115355;28;20006;-68
2023/07/14 10:44:33;;;;;;;;;;;;;;;;;;5115242;28;19908;-68
2023/07/14 10:46:59;;;;;;;;;;;;;;;;;;5114808;28;19953;-67
2023/07/14 10:49:25;;;;;;;;;;;;;;;;;;5115282;28;19914;-68
2023/07/14 10:51:51;;;;;;;;;;;;;;;;;;5114495;27;19908;-68
2023/07/14 10:54:17;;;;;;;;;;;;;;;;;;5114719;28;19952;-68
2023/07/14 10:56:43;;;;;;;;;;;;;;;;;;5096707;28;20368;-68
2023/07/14 10:59:08;;;;;;;;;;;;;;;;;;5115085;28;20391;-68
2023/07/14 11:01:35;;;;;;;;;;;;;;;;;;5114414;28;20292;-69
2023/07/14 11:04:01;;;;;;;;;;;;;;;;;;5115042;28;19915;-68
2023/07/14 11:06:29;;;;;;;;;;;;;;;;;;5115089;28;20279;-68
2023/07/14 11:08:55;;;;;;;;;;;;;;;;;;5114426;28;19908;-69
2023/07/14 11:11:22;;;;;;;;;;;;;;;;;;5114031;28;19914;-69
2023/07/14 11:13:48;;;;;;;;;;;;;;;;;;5114400;27;19914;-70
2023/07/14 11:16:14;;;;;;;;;;;;;;;;;;5113531;28;19908;-69
2023/07/14 11:18:40;;;;;;;;;;;;;;;;;;5112595;28;19912;-69
2023/07/14 11:21:06;;;;;;;;;;;;;;;;;;5113794;28;19953;-69
2023/07/14 11:23:32;;;;;;;;;;;;;;;;;;5113854;28;20367;-69
2023/07/14 11:25:58;;;;;;;;;;;;;;;;;;5094871;28;19915;-68
2023/07/14 11:28:24;;;;;;;;;;;;;;;;;;5094184;28;19911;-68
2023/07/14 11:30:51;;;;;;;;;;;;;;;;;;5111952;28;20006;-69
2023/07/14 11:33:17;;;;;;;;;;;;;;;;;;5094483;28;20212;-70
2023/07/14 11:35:43;;;;;;;;;;;;;;;;;;5094021;28;19961;-70
2023/07/14 11:38:09;;;;;;;;;;;;;;;;;;5112921;28;20036;-70
2023/07/14 11:40:35;;;;;;;;;;;;;;;;;;5114404;28;19949;-68
2023/07/14 11:43:01;;;;;;;;;;;;;;;;;;5114106;28;19916;-70
2023/07/14 11:45:27;;;;;;;;;;;;;;;;;;5114314;28;19914;-70
2023/07/14 11:47:53;;;;;;;;;;;;;;;;;;5114311;28;19908;-70
2023/07/14 11:50:19;;;;;;;;;;;;;;;;;;5113706;28;20265;-70
2023/07/14 11:52:44;;;;;;;;;;;;;;;;;;5094300;28;19915;-70
2023/07/14 11:55:10;;;;;;;;;;;;;;;;;;5094353;28;19999;-68
2023/07/14 11:57:36;;;;;;;;;;;;;;;;;;5113874;28;19915;-70
2023/07/14 12:00:03;;;;;;;;;;;;;;;;;;5094841;28;19907;-70
2023/07/14 12:02:29;;;;;;;;;;;;;;;;;;5097985;28;19920;-69
2023/07/14 12:04:55;;;;;;;;;;;;;;;;;;5093222;28;19908;-70
2023/07/14 12:07:22;;;;;;;;;;;;;;;;;;5092167;28;19908;-69
2023/07/14 12:09:48;;;;;;;;;;;;;;;;;;5092873;28;20322;-73
2023/07/14 12:12:15;;;;;;;;;;;;;;;;;;5092854;28;19939;-71
2023/07/14 12:14:41;;;;;;;;;;;;;;;;;;5092665;28;20003;-73
2023/07/14 12:17:07;;;;;;;;;;;;;;;;;;5092033;28;19978;-71
2023/07/14 12:19:34;;;;;;;;;;;;;;;;;;5093288;28;19912;-73
2023/07/14 12:22:00;;;;;;;;;;;;;;;;;;5090704;28;19952;-71
2023/07/14 12:24:25;;;;;;;;;;;;;;;;;;5093592;28;19992;-72
2023/07/14 12:26:51;;;;;;;;;;;;;;;;;;5093209;28;19915;-71
2023/07/14 12:29:17;;;;;;;;;;;;;;;;;;5092146;28;19908;-71
2023/07/14 12:31:43;;;;;;;;;;;;;;;;;;5092005;28;19908;-70
2023/07/14 12:34:09;;;;;;;;;;;;;;;;;;5091349;28;19965;-70
2023/07/14 12:36:36;;;;;;;;;;;;;;;;;;5092331;28;19908;-71
2023/07/14 12:39:04;;;;;;;;;;;;;;;;;;5093564;28;20007;-70
2023/07/14 12:41:32;;;;;;;;;;;;;;;;;;5093548;28;19930;-70
2023/07/14 12:43:59;;;;;;;;;;;;;;;;;;5093627;28;19958;-70
2023/07/14 12:46:25;;;;;;;;;;;;;;;;;;5093214;28;20276;-71
2023/07/14 12:48:51;;;;;;;;;;;;;;;;;;5095261;28;20416;-72
2023/07/14 12:51:17;;;;;;;;;;;;;;;;;;5096714;28;20388;-70
2023/07/14 12:53:43;;;;;;;;;;;;;;;;;;5094941;28;19908;-72
2023/07/14 12:56:09;;;;;;;;;;;;;;;;;;5095581;28;19908;-72
2023/07/14 12:58:35;;;;;;;;;;;;;;;;;;5096713;28;19962;-72
2023/07/14 13:01:01;;;;;;;;;;;;;;;;;;5097063;28;19947;-74
2023/07/14 13:03:27;;;;;;;;;;;;;;;;;;5117111;28;19912;-72
2023/07/14 13:05:53;;;;;;;;;;;;;;;;;;5116922;28;19907;-72
2023/07/14 13:08:19;;;;;;;;;;;;;;;;;;5116999;28;19987;-71
2023/07/14 13:10:45;;;;;;;;;;;;;;;;;;5117733;28;19908;-71
2023/07/14 13:13:11;;;;;;;;;;;;;;;;;;5117512;28;19914;-72
2023/07/14 13:15:37;;;;;;;;;;;;;;;;;;5098168;28;19908;-70
2023/07/14 13:18:03;;;;;;;;;;;;;;;;;;5099100;28;19995;-69
2023/07/14 13:20:29;;;;;;;;;;;;;;;;;;5117069;28;19908;-69
2023/07/14 13:22:55;;;;;;;;;;;;;;;;;;5116527;28;20014;-70
2023/07/14 13:25:21;;;;;;;;;;;;;;;;;;5117047;28;19951;-70
2023/07/14 13:27:48;;;;;;;;;;;;;;;;;;5117178;28;19911;-71
2023/07/14 13:30:14;;;;;;;;;;;;;;;;;;5116758;28;20391;-71
2023/07/14 13:32:41;;;;;;;;;;;;;;;;;;5117259;28;20351;-72
2023/07/14 13:35:06;;;;;;;;;;;;;;;;;;5117111;28;19908;-71
2023/07/14 13:37:33;;;;;;;;;;;;;;;;;;5116578;28;19998;-71
2023/07/14 13:39:59;;;;;;;;;;;;;;;;;;5116896;28;19910;-71
2023/07/14 13:42:25;;;;;;;;;;;;;;;;;;5116263;28;19923;-71
2023/07/14 13:44:51;;;;;;;;;;;;;;;;;;5116733;28;20372;-70
2023/07/14 13:47:17;;;;;;;;;;;;;;;;;;5116828;28;19973;-72
2023/07/14 13:49:43;;;;;;;;;;;;;;;;;;5116204;28;19907;-71
2023/07/14 13:52:09;;;;;;;;;;;;;;;;;;5116424;28;20002;-71
2023/07/14 13:54:35;;;;;;;;;;;;;;;;;;5116390;28;19950;-70
2023/07/14 13:57:02;;;;;;;;;;;;;;;;;;5116014;28;19912;-71
2023/07/14 13:59:28;;;;;;;;;;;;;;;;;;5116459;28;19999;-72
2023/07/14 14:01:54;;;;;;;;;;;;;;;;;;5115767;28;19923;-73
2023/07/14 14:04:19;;;;;;;;;;;;;;;;;;5115889;28;19915;-70
2023/07/14 14:06:45;;;;;;;;;;;;;;;;;;5116275;28;20003;-70
2023/07/14 14:09:11;;;;;;;;;;;;;;;;;;5116397;28;19911;-71
2023/07/14 14:11:37;;;;;;;;;;;;;;;;;;5115866;28;20321;-70
2023/07/14 14:14:03;;;;;;;;;;;;;;;;;;5116152;28;20271;-70
2023/07/14 14:16:31;;;;;;;;;;;;;;;;;;5097933;28;19957;-71
2023/07/14 14:18:57;;;;;;;;;;;;;;;;;;5115994;28;20241;-72
2023/07/14 14:21:23;;;;;;;;;;;;;;;;;;5097778;28;19912;-71
2023/07/14 14:23:49;;;;;;;;;;;;;;;;;;5097878;28;19916;-71
2023/07/14 14:26:15;;;;;;;;;;;;;;;;;;5097229;28;19957;-72
2023/07/14 14:28:41;;;;;;;;;;;;;;;;;;5116059;28;19908;-71
2023/07/14 14:31:07;;;;;;;;;;;;;;;;;;5115816;28;20347;-72
2023/07/14 14:33:33;;;;;;;;;;;;;;;;;;5097188;28;19914;-72
2023/07/14 14:35:59;;;;;;;;;;;;;;;;;;5097494;28;19908;-73
2023/07/14 14:38:27;;;;;;;;;;;;;;;;;;5115634;28;20364;-72
2023/07/14 14:40:53;;;;;;;;;;;;;;;;;;5097092;28;19908;-71
2023/07/14 14:43:19;;;;;;;;;;;;;;;;;;5097249;28;19930;-71
2023/07/14 14:45:45;;;;;;;;;;;;;;;;;;5115224;28;19907;-71
2023/07/14 14:48:11;;;;;;;;;;;;;;;;;;5115515;28;19951;-72
2023/07/14 14:50:37;;;;;;;;;;;;;;;;;;5115423;28;19939;-73
2023/07/14 14:53:03;;;;;;;;;;;;;;;;;;5115122;28;19908;-69
2023/07/14 14:55:29;;;;;;;;;;;;;;;;;;5115192;28;19908;-70
2023/07/14 14:57:55;;;;;;;;;;;;;;;;;;5097145;28;19912;-70
2023/07/14 15:00:21;;;;;;;;;;;;;;;;;;5114676;28;19974;-72
2023/07/14 15:02:48;;;;;;;;;;;;;;;;;;5115017;28;19920;-72
2023/07/14 15:05:15;;;;;;;;;;;;;;;;;;5115067;28;19907;-72
2023/07/14 15:07:41;;;;;;;;;;;;;;;;;;5114681;28;20339;-71
2023/07/14 15:10:07;;;;;;;;;;;;;;;;;;5115011;28;19908;-71
2023/07/14 15:12:33;;;;;;;;;;;;;;;;;;5114406;28;19947;-71
2023/07/14 15:14:59;;;;;;;;;;;;;;;;;;5114447;28;19930;-72
2023/07/14 15:17:24;;;;;;;;;;;;;;;;;;5114961;28;19908;-72
2023/07/14 15:19:50;;;;;;;;;;;;;;;;;;5114991;28;20002;-73
2023/07/14 15:22:16;;;;;;;;;;;;;;;;;;5115037;28;19923;-71
2023/07/14 15:24:42;;;;;;;;;;;;;;;;;;5115014;28;19908;-72
2023/07/14 15:27:08;;;;;;;;;;;;;;;;;;5115047;28;19999;-72
2023/07/14 15:29:34;;;;;;;;;;;;;;;;;;5114818;28;19908;-71
2023/07/14 15:32:00;;;;;;;;;;;;;;;;;;5114818;28;20421;-72
2023/07/14 15:34:26;;;;;;;;;;;;;;;;;;5115303;28;20379;-72
2023/07/14 15:36:52;;;;;;;;;;;;;;;;;;5114305;28;19953;-71
2023/07/14 15:39:18;;;;;;;;;;;;;;;;;;5096348;28;19907;-71
2023/07/14 15:41:44;;;;;;;;;;;;;;;;;;5114473;28;19969;-71
2023/07/14 15:44:11;;;;;;;;;;;;;;;;;;5114046;28;19912;-70
2023/07/14 15:46:37;;;;;;;;;;;;;;;;;;5096299;28;19953;-71
2023/07/14 15:49:04;;;;;;;;;;;;;;;;;;5113962;28;19953;-71
2023/07/14 15:51:30;;;;;;;;;;;;;;;;;;5096281;28;19964;-72
2023/07/14 15:53:56;;;;;;;;;;;;;;;;;;5096118;28;20271;-72
2023/07/14 15:56:22;;;;;;;;;;;;;;;;;;5114028;28;19914;-73
2023/07/14 15:58:48;;;;;;;;;;;;;;;;;;5096096;28;20360;-73
2023/07/14 16:01:14;;;;;;;;;;;;;;;;;;5113965;28;20310;-71
2023/07/14 16:03:40;;;;;;;;;;;;;;;;;;5114046;28;19999;-72
2023/07/14 16:06:06;;;;;;;;;;;;;;;;;;5114164;28;19915;-72
2023/07/14 16:08:32;;;;;;;;;;;;;;;;;;5114205;28;19947;-74
2023/07/14 16:10:58;;;;;;;;;;;;;;;;;;5095888;28;20360;-72
2023/07/14 16:13:26;;;;;;;;;;;;;;;;;;5114839;28;20375;-71
2023/07/14 16:15:52;;;;;;;;;;;;;;;;;;5114851;28;19908;-73
2023/07/14 16:18:18;;;;;;;;;;;;;;;;;;5114440;28;20293;-73
2023/07/14 16:20:44;;;;;;;;;;;;;;;;;;5114819;28;20297;-74
2023/07/14 16:23:09;;;;;;;;;;;;;;;;;;5115492;28;20467;-72
2023/07/14 16:25:35;;;;;;;;;;;;;;;;;;5118916;28;19955;-73
2023/07/14 16:28:01;;;;;;;;;;;;;;;;;;5119054;28;19919;-72
2023/07/14 16:30:27;;;;;;;;;;;;;;;;;;5118542;28;20279;-72
2023/07/14 16:32:53;;;;;;;;;;;;;;;;;;5117949;28;19908;-73
2023/07/14 16:35:19;;;;;;;;;;;;;;;;;;5118072;28;19915;-71
2023/07/14 16:37:45;;;;;;;;;;;;;;;;;;5117995;28;19961;-72
2023/07/14 16:40:11;;;;;;;;;;;;;;;;;;5117564;28;20375;-72
2023/07/14 16:42:38;;;;;;;;;;;;;;;;;;5117786;28;20034;-71
2023/07/14 16:45:04;;;;;;;;;;;;;;;;;;5099821;28;20321;-72
2023/07/14 16:47:30;;;;;;;;;;;;;;;;;;5117510;28;19965;-72
2023/07/14 16:49:59;;;;;;;;;;;;;;;;;;5118112;28;19908;-72
2023/07/14 16:52:25;;;;;;;;;;;;;;;;;;5117459;28;19915;-72
2023/07/14 16:54:51;;;;;;;;;;;;;;;;;;5117593;28;19912;-71
2023/07/14 16:57:17;;;;;;;;;;;;;;;;;;5117616;28;19908;-71
2023/07/14 16:59:43;;;;;;;;;;;;;;;;;;5117175;28;19966;-71
2023/07/14 17:02:09;;;;;;;;;;;;;;;;;;5117175;28;19920;-71
2023/07/14 17:04:35;;;;;;;;;;;;;;;;;;5099176;28;19961;-70
2023/07/14 17:07:01;;;;;;;;;;;;;;;;;;5117020;28;19998;-70
2023/07/14 17:09:28;;;;;;;;;;;;;;;;;;5118060;28;19915;-71
2023/07/14 17:11:54;;;;;;;;;;;;;;;;;;5117907;28;19994;-71
2023/07/14 17:14:20;;;;;;;;;;;;;;;;;;5098572;28;20331;-71
2023/07/14 17:16:46;;;;;;;;;;;;;;;;;;5099028;28;19998;-72
2023/07/14 17:19:12;;;;;;;;;;;;;;;;;;5117230;28;19986;-71
2023/07/14 17:21:38;;;;;;;;;;;;;;;;;;5116920;28;19920;-72
2023/07/14 17:24:04;;;;;;;;;;;;;;;;;;5098657;28;19908;-71
2023/07/14 17:26:30;;;;;;;;;;;;;;;;;;5116998;28;19912;-71
2023/07/14 17:28:56;;;;;;;;;;;;;;;;;;5116761;28;19986;-72
2023/07/14 17:31:22;;;;;;;;;;;;;;;;;;5117052;28;19914;-71
2023/07/14 17:33:48;;;;;;;;;;;;;;;;;;5116435;28;19908;-72
2023/07/14 17:36:14;;;;;;;;;;;;;;;;;;5116792;28;20020;-72
2023/07/14 17:38:40;;;;;;;;;;;;;;;;;;5117281;28;19912;-72
2023/07/14 17:41:06;;;;;;;;;;;;;;;;;;5098394;28;20295;-71
2023/07/14 17:43:33;;;;;;;;;;;;;;;;;;5116393;28;19919;-72
2023/07/14 17:45:59;;;;;;;;;;;;;;;;;;5116676;28;19947;-71
2023/07/14 17:48:24;;;;;;;;;;;;;;;;;;5116596;28;20386;-72
2023/07/14 17:50:51;;;;;;;;;;;;;;;;;;5097941;28;20273;-72
2023/07/14 17:53:18;;;;;;;;;;;;;;;;;;5116471;28;19908;-71
2023/07/14 17:55:44;;;;;;;;;;;;;;;;;;5116140;28;19930;-72
2023/07/14 17:58:09;;;;;;;;;;;;;;;;;;5116364;28;19960;-72
2023/07/14 18:00:35;;;;;;;;;;;;;;;;;;5116571;28;20407;-71
2023/07/14 18:03:03;;;;;;;;;;;;;;;;;;5115787;28;20403;-71
2023/07/14 18:05:29;;;;;;;;;;;;;;;;;;5097933;28;20344;-72